Terminal Aerodrome Forecast
Issued by NWS

Home | Current Version | Previous Version | Graphics & Text | Print | Product List | Glossary On
Versions: 1 2 3 4 5 6 7 8 9 10 11 12 13 14
000
FTUS43 KBIS 201921 AAA
TAFMOT
TAF AMD
KMOT 201921Z 2019/2118 30018G24KT P6SM FEW050
     FM210100 33012KT P6SM FEW250
     FM211500 03006KT P6SM SCT080
     FM211700 06006KT P6SM SCT060=

USA.gov is the U.S. government's official web portal to all federal, state and local government web resources and services.